Isle aux Morts, Canada
Current Conditions -  °F | °C
As of 5:00 AM on Tuesday 21 Oct 2014 (Local Time) from CWZB Reporting Station
Broken Clouds Broken Clouds  
Wind Chill:   Ceiling: 2800
Heat Index:   Visibility: 9mi
Dew Point:   Wind: 28mph
Humidity: 72%   Direction: 260°W
Pressure: 29.87"   Gusts: 38mph
Location:  47.59°N, 58.97°W
Report Text: CWZB 210700Z AUTO 26024G33KT 9SM BKN028 07/02 A2987 RMK SLP116 PK WND 27038/// T00730025 70022 WSI/SWOB
Loading
Personal Weather Stations






























Interactive Weather Map
Tropical Storm Tracking
New forecast layout! Learn more

10-Day Weather Forecast

Advertisements
Track Severe Weather on mobile